Carnesville, GA

6:20 AM EDT on October 25, 2014 (GMT -0400)
Not Bar Farm | Change Station
CLOSE
Current Station
Personal Weather Station
Location: Danielsville, GA
Elevation: 666 ft
Nearby Weather Stations

Elev 666 ft 34.25 °N, 83.32 °W | Updated 48 seconds ago

Clear
Clear
38.7 °F
Feels Like 39 °F
N
0.0
Wind Variable Wind from SW
Gusts 0.0 mph

Today
High -- | Low -- °F
--% Chance of Precip.
Yesterday
High -- | Low -- °F
Precip. -- in
7:46 AM 6:46 PM
New Moon, 2% visible
Pressure 30.02 in
Visibility 10.0 miles
Clouds Clear
Windchill 39 °F
Dew Point 38 °F
Humidity 96%
Rainfall 0.00 in
Snow Depth Not available.
UV 0 out of 12
Pollen 2.30 out of 12
Air Quality Not available.
Flu Activity Sporadic
METAR KTOC 250955Z AUTO 35004KT 10SM CLR 09/05 A3002 RMK AO2 T00850053

More Conditions Fewer Conditions

Pressure 30.02 in
Visibility 10.0 miles
Clouds Clear
Windchill 39 °F
Dew Point 38 °F
Humidity 96%
Rainfall 0.00 in
Snow Depth Not available.
UV 0 out of 12
Pollen 2.30 out of 12
Air Quality Not available.
Flu Activity Sporadic
METAR KTOC 250955Z AUTO 35004KT 10SM CLR 09/05 A3002 RMK AO2 T00850053

More Conditions Fewer Conditions

10-Day Weather Forecast

Almanac

Astronomy

Oct. 25, 2014 Rise Set
Actual Time 7:46 AM EDT 6:46 PM EDT
Civil Twilight 7:21 AM EDT 7:12 PM EDT
Nautical Twilight 6:51 AM EDT 7:42 PM EDT
Astronomical Twilight 6:22 AM EDT 8:11 PM EDT
Moon 9:21 AM EDT 8:12 PM EDT
Length of Visible Light 11h 51m
Length of Day
11h 00m
Tomorrow will be 1m 57s shorter.
New Moon, 2% of the Moon is Illuminated
Today
New Moon
Oct 30
First Quarter
Nov 6
Full
Nov 14
Last Quarter
Nov 22
New

Today's Extremes

State Highs State Lows

Community

WunderPhotos

Upload Photos

1,764,806 photos uploaded!

Nearby

Snow Depth

Station Depth Elevation
No new snow has been reported.

Earthquake Activity

City Distance Mag. Time & Date
No recent earthquake activity has been reported nearby.
Minimum magnitude displayed is 2.5.

Coastal Water Temperatures

Place Temperature
No Stations Reporting

Nearby Weather Stations